createdAt,value
2022-12-03T00:01:21.212Z,2.90
2022-12-03T00:03:49.208Z,2.80
2022-12-03T00:06:17.983Z,2.70
2022-12-03T00:08:45.459Z,2.80
2022-12-03T00:11:13.139Z,2.70
2022-12-03T00:13:40.472Z,2.80
2022-12-03T00:16:08.629Z,2.80
2022-12-03T00:18:36.353Z,2.70
2022-12-03T00:21:04.300Z,2.70
2022-12-03T00:23:33.973Z,2.70
2022-12-03T00:26:05.075Z,2.80
2022-12-03T00:28:32.736Z,2.70
2022-12-03T00:31:00.994Z,2.80
2022-12-03T00:33:28.305Z,2.80
2022-12-03T00:35:56.026Z,2.50
2022-12-03T00:38:23.351Z,2.50
2022-12-03T00:40:51.108Z,2.50
2022-12-03T00:43:18.660Z,2.40
2022-12-03T00:45:46.334Z,2.40
2022-12-03T00:48:13.934Z,2.40
2022-12-03T00:50:41.495Z,2.50
2022-12-03T00:53:08.847Z,2.50
2022-12-03T00:55:36.376Z,2.40
2022-12-03T00:58:03.875Z,2.40
2022-12-03T01:00:31.431Z,2.40
2022-12-03T01:02:58.677Z,2.70
2022-12-03T01:05:26.485Z,2.60
2022-12-03T01:07:53.823Z,2.50
2022-12-03T01:10:21.742Z,2.70
2022-12-03T01:12:49.185Z,2.70
2022-12-03T01:15:17.230Z,2.60
2022-12-03T01:17:44.627Z,2.80
2022-12-03T01:20:14.644Z,2.80
2022-12-03T01:22:42.205Z,2.80
2022-12-03T01:25:10.461Z,2.60
2022-12-03T01:27:37.760Z,2.50
2022-12-03T01:30:06.711Z,2.40
2022-12-03T01:32:34.272Z,2.50
2022-12-03T01:35:02.109Z,2.50
2022-12-03T01:37:29.772Z,2.60
2022-12-03T01:39:57.594Z,2.60
2022-12-03T01:42:32.004Z,2.70
2022-12-03T01:45:01.077Z,2.90
2022-12-03T01:47:32.228Z,2.80
2022-12-03T01:50:11.229Z,2.60
2022-12-03T01:52:39.676Z,2.60
2022-12-03T01:55:14.865Z,2.50
2022-12-03T01:57:42.436Z,2.60
2022-12-03T02:00:17.926Z,2.80
2022-12-03T02:02:46.987Z,2.80
2022-12-03T02:05:19.771Z,2.90
2022-12-03T02:07:48.331Z,3.20
2022-12-03T02:10:18.405Z,3.30
2022-12-03T02:13:06.396Z,3.30
2022-12-03T02:15:39.266Z,3.10
2022-12-03T02:18:09.118Z,3.10
2022-12-03T02:20:49.143Z,3.10
2022-12-03T02:23:50.829Z,3.30
2022-12-03T02:26:18.976Z,3.10
2022-12-03T02:28:46.466Z,3.10
2022-12-03T02:31:14.382Z,3.50
2022-12-03T02:33:42.005Z,3.60
2022-12-03T02:36:10.192Z,3.80
2022-12-03T02:38:37.986Z,3.80
2022-12-03T02:41:10.168Z,3.60
2022-12-03T02:43:39.051Z,3.50
2022-12-03T02:46:09.003Z,3.30
2022-12-03T02:48:40.015Z,3.40
2022-12-03T02:51:10.694Z,3.30
2022-12-03T02:53:45.736Z,3.10
2022-12-03T02:56:18.317Z,3.10
2022-12-03T02:58:48.640Z,3.30
2022-12-03T03:01:17.295Z,3.10
2022-12-03T03:03:46.723Z,3.50
2022-12-03T03:06:15.840Z,3.30
2022-12-03T03:08:43.900Z,3.10
2022-12-03T03:11:11.958Z,2.90
2022-12-03T03:13:40.107Z,2.90
2022-12-03T03:16:09.178Z,2.90
2022-12-03T03:18:37.370Z,3.00
2022-12-03T03:21:05.887Z,2.90
2022-12-03T03:23:33.832Z,3.10
2022-12-03T03:26:06.246Z,3.10
2022-12-03T03:28:38.810Z,3.20
2022-12-03T03:31:09.971Z,3.30
2022-12-03T03:33:41.509Z,3.20
2022-12-03T03:36:10.144Z,3.10
2022-12-03T03:38:39.236Z,3.10
2022-12-03T03:41:07.848Z,2.90
2022-12-03T03:43:37.329Z,2.90
2022-12-03T03:46:06.887Z,2.80
2022-12-03T03:48:35.629Z,2.80
2022-12-03T03:51:09.104Z,2.80
2022-12-03T03:53:45.813Z,2.80
2022-12-03T03:56:14.346Z,2.70
2022-12-03T03:58:41.671Z,2.50
2022-12-03T04:01:11.631Z,2.50
2022-12-03T04:03:39.661Z,2.50
2022-12-03T04:06:07.631Z,2.50
2022-12-03T04:08:35.094Z,2.40
2022-12-03T04:11:16.766Z,2.50
2022-12-03T04:13:44.108Z,2.40
2022-12-03T04:16:11.839Z,2.30
2022-12-03T04:18:45.306Z,2.40
2022-12-03T04:21:41.528Z,2.40
2022-12-03T04:24:11.461Z,2.40
2022-12-03T04:26:52.877Z,2.50
2022-12-03T04:29:21.306Z,2.50
2022-12-03T04:32:02.542Z,2.60
2022-12-03T04:34:44.660Z,2.70
2022-12-03T04:37:12.316Z,2.80
2022-12-03T04:39:40.525Z,2.80
2022-12-03T04:42:08.129Z,3.00
2022-12-03T04:44:36.846Z,3.10
2022-12-03T04:47:07.458Z,2.90
2022-12-03T04:49:37.071Z,2.80
2022-12-03T04:52:05.095Z,2.80
2022-12-03T04:54:33.222Z,2.70
2022-12-03T04:57:00.767Z,2.70
2022-12-03T04:59:43.775Z,2.50
2022-12-03T05:02:11.449Z,2.60
2022-12-03T05:04:39.333Z,2.80
2022-12-03T05:07:06.832Z,2.90
2022-12-03T05:09:34.547Z,2.80
2022-12-03T05:12:01.973Z,2.80
2022-12-03T05:14:29.988Z,2.80
2022-12-03T05:16:57.666Z,2.70
2022-12-03T05:19:45.712Z,2.80
2022-12-03T05:22:13.287Z,2.90
2022-12-03T05:24:41.358Z,3.00
2022-12-03T05:27:08.845Z,2.90
2022-12-03T05:29:36.325Z,2.90
2022-12-03T05:32:04.745Z,3.00
2022-12-03T05:34:32.454Z,3.00
2022-12-03T05:36:59.792Z,3.10
2022-12-03T05:39:27.777Z,3.00
2022-12-03T05:42:10.048Z,2.80
2022-12-03T05:44:37.560Z,2.80
2022-12-03T05:47:05.112Z,2.80
2022-12-03T05:49:33.106Z,2.80
2022-12-03T05:52:00.604Z,2.90
2022-12-03T05:54:29.325Z,3.00
2022-12-03T05:56:56.885Z,3.00
2022-12-03T05:59:24.581Z,2.90
2022-12-03T06:01:51.996Z,2.80
2022-12-03T06:04:19.996Z,2.70
2022-12-03T06:06:47.627Z,2.90
2022-12-03T06:09:15.317Z,2.80
2022-12-03T06:11:42.584Z,3.00
2022-12-03T06:14:10.261Z,3.00
2022-12-03T06:16:38.244Z,3.00
2022-12-03T06:19:05.849Z,2.80
2022-12-03T06:21:33.469Z,2.70
2022-12-03T06:24:01.575Z,2.80
2022-12-03T06:26:30.396Z,2.90
2022-12-03T06:28:58.210Z,2.80
2022-12-03T06:31:25.647Z,2.90
2022-12-03T06:33:53.510Z,2.90
2022-12-03T06:36:23.243Z,2.90
2022-12-03T06:38:51.335Z,2.80
2022-12-03T06:41:18.843Z,2.90
2022-12-03T06:43:46.685Z,2.90
2022-12-03T06:46:14.281Z,3.00
2022-12-03T06:48:41.820Z,2.90
2022-12-03T06:51:09.400Z,2.90
2022-12-03T06:53:37.127Z,2.90
2022-12-03T06:56:04.858Z,2.80
2022-12-03T06:58:32.608Z,2.80
2022-12-03T07:01:00.230Z,2.90
2022-12-03T07:03:30.069Z,3.10
2022-12-03T07:05:58.407Z,3.30
2022-12-03T07:08:26.549Z,3.30
2022-12-03T07:10:54.895Z,3.30
2022-12-03T07:13:23.761Z,3.20
2022-12-03T07:15:52.455Z,3.10
2022-12-03T07:18:20.068Z,3.00
2022-12-03T07:20:47.712Z,2.80
2022-12-03T07:23:15.474Z,2.80
2022-12-03T07:25:43.061Z,2.80
2022-12-03T07:28:10.785Z,2.70
2022-12-03T07:30:38.395Z,2.70
2022-12-03T07:33:06.195Z,2.80
2022-12-03T07:35:33.587Z,2.90
2022-12-03T07:38:02.044Z,3.00
2022-12-03T07:40:29.712Z,3.10
2022-12-03T07:42:57.496Z,3.10
2022-12-03T07:45:24.991Z,3.00
2022-12-03T07:47:52.545Z,2.90
2022-12-03T07:50:20.232Z,2.80
2022-12-03T07:52:48.065Z,2.80
2022-12-03T07:55:15.982Z,2.90
2022-12-03T07:57:43.831Z,3.00
2022-12-03T08:00:12.704Z,3.10
2022-12-03T08:02:40.504Z,3.10
2022-12-03T08:05:08.329Z,3.00
2022-12-03T08:07:36.257Z,3.10
2022-12-03T08:10:05.148Z,3.00
2022-12-03T08:12:41.816Z,3.00
2022-12-03T08:15:24.351Z,3.10
2022-12-03T08:17:56.497Z,3.30
2022-12-03T08:20:29.142Z,3.30
2022-12-03T08:22:57.711Z,3.60
2022-12-03T08:25:31.612Z,3.70
2022-12-03T08:28:13.125Z,3.80
2022-12-03T08:30:43.455Z,4.00
2022-12-03T08:33:33.733Z,4.20
2022-12-03T08:36:11.438Z,4.30
2022-12-03T08:38:43.703Z,4.00
2022-12-03T08:41:36.226Z,4.00
2022-12-03T08:44:23.956Z,4.20
2022-12-03T08:47:08.886Z,4.20
2022-12-03T08:49:37.439Z,4.00
2022-12-03T08:52:16.766Z,3.90
2022-12-03T08:54:53.171Z,3.80
2022-12-03T08:57:32.100Z,3.70
2022-12-03T09:00:18.736Z,4.00
2022-12-03T09:02:51.412Z,4.20
2022-12-03T09:05:23.505Z,4.20
2022-12-03T09:07:51.203Z,4.50
2022-12-03T09:10:18.970Z,4.70
2022-12-03T09:12:46.573Z,4.70
2022-12-03T09:15:14.222Z,4.80
2022-12-03T09:17:41.619Z,4.70
2022-12-03T09:20:10.482Z,4.40
2022-12-03T09:22:38.097Z,4.10
2022-12-03T09:25:06.684Z,3.90
2022-12-03T09:27:34.007Z,4.00
2022-12-03T09:30:01.959Z,3.90
2022-12-03T09:32:29.626Z,4.00
2022-12-03T09:34:58.016Z,3.90
2022-12-03T09:37:25.352Z,3.90
2022-12-03T09:39:53.158Z,3.80
2022-12-03T09:42:20.866Z,3.90
2022-12-03T09:44:48.807Z,4.30
2022-12-03T09:47:16.160Z,4.70
2022-12-03T09:49:44.301Z,5.00
2022-12-03T09:52:19.229Z,4.90
2022-12-03T09:54:47.707Z,5.00
2022-12-03T09:57:17.002Z,4.90
2022-12-03T09:59:45.319Z,4.80
2022-12-03T10:02:24.073Z,4.90
2022-12-03T10:04:53.680Z,4.50
2022-12-03T10:07:21.909Z,4.60
2022-12-03T10:09:49.688Z,4.70
2022-12-03T10:12:23.455Z,4.80
2022-12-03T10:14:53.399Z,4.70
2022-12-03T10:17:21.476Z,4.50
2022-12-03T10:19:49.548Z,4.50
2022-12-03T10:22:17.096Z,4.70
2022-12-03T10:24:45.247Z,5.00
2022-12-03T10:27:24.752Z,5.30
2022-12-03T10:29:59.647Z,5.50
2022-12-03T10:32:41.052Z,5.60
2022-12-03T10:35:21.461Z,5.50
2022-12-03T10:38:08.446Z,5.10
2022-12-03T10:40:38.368Z,5.00
2022-12-03T10:43:20.902Z,5.00
2022-12-03T10:46:11.554Z,5.10
2022-12-03T10:48:39.386Z,5.00
2022-12-03T10:51:22.199Z,4.90
2022-12-03T10:53:50.838Z,4.70
2022-12-03T10:56:25.242Z,4.70
2022-12-03T10:58:52.799Z,4.70
2022-12-03T11:01:23.268Z,4.50
2022-12-03T11:03:51.721Z,4.50
2022-12-03T11:06:21.796Z,4.40
2022-12-03T11:08:57.105Z,4.70
2022-12-03T11:11:28.897Z,5.00
2022-12-03T11:14:00.400Z,5.10
2022-12-03T11:16:42.141Z,5.00
2022-12-03T11:19:13.032Z,4.90
2022-12-03T11:22:05.234Z,4.80
2022-12-03T11:24:35.611Z,4.80
2022-12-03T11:27:07.270Z,5.00
2022-12-03T11:29:48.353Z,5.30
2022-12-03T11:32:39.457Z,5.30
2022-12-03T11:35:23.817Z,5.20
2022-12-03T11:37:51.737Z,5.30
2022-12-03T11:40:19.587Z,5.30
2022-12-03T11:42:48.025Z,5.10
2022-12-03T11:45:29.914Z,5.10
2022-12-03T11:48:11.649Z,5.10
2022-12-03T11:50:42.910Z,5.00
2022-12-03T11:53:31.907Z,5.00
2022-12-03T11:56:11.046Z,5.00
2022-12-03T11:58:42.489Z,5.00
2022-12-03T12:01:10.365Z,5.30
2022-12-03T12:03:49.344Z,5.50
2022-12-03T12:06:21.604Z,5.70
2022-12-03T12:08:52.224Z,5.70
2022-12-03T12:11:26.163Z,5.90
2022-12-03T12:14:00.144Z,6.00
2022-12-03T12:16:42.884Z,6.00
2022-12-03T12:19:27.579Z,5.80
2022-12-03T12:21:56.037Z,5.70
2022-12-03T12:24:47.183Z,5.60
2022-12-03T12:27:37.433Z,5.70
2022-12-03T12:30:16.806Z,5.70
2022-12-03T12:33:02.784Z,5.60
2022-12-03T12:35:32.963Z,5.70
2022-12-03T12:38:14.954Z,5.90
2022-12-03T12:40:45.939Z,6.20
2022-12-03T12:43:27.528Z,6.10
2022-12-03T12:45:57.059Z,6.10
2022-12-03T12:48:31.722Z,6.20
2022-12-03T12:51:15.036Z,6.20
2022-12-03T12:53:43.037Z,6.40
2022-12-03T12:56:30.750Z,6.40
2022-12-03T12:59:24.079Z,6.10
2022-12-03T13:01:52.384Z,5.70
2022-12-03T13:04:24.590Z,5.50
2022-12-03T13:06:54.077Z,5.50
2022-12-03T13:09:27.266Z,5.50
2022-12-03T13:11:58.889Z,5.70
2022-12-03T13:14:36.734Z,5.80
2022-12-03T13:17:16.331Z,5.70
2022-12-03T13:19:49.369Z,5.90
2022-12-03T13:22:25.952Z,5.90
2022-12-03T13:24:56.501Z,6.10
2022-12-03T13:27:31.552Z,6.10
2022-12-03T13:30:08.760Z,5.90
2022-12-03T13:32:42.487Z,5.80
2022-12-03T13:35:17.503Z,5.80
2022-12-03T13:37:45.260Z,6.10
2022-12-03T13:40:28.435Z,6.20
2022-12-03T13:42:57.346Z,6.40
2022-12-03T13:45:33.854Z,6.30
2022-12-03T13:48:16.777Z,6.30
2022-12-03T13:50:46.193Z,6.50
2022-12-03T13:53:29.651Z,6.50
2022-12-03T13:56:25.235Z,6.60
2022-12-03T13:58:53.350Z,6.80
2022-12-03T14:01:21.014Z,6.90
2022-12-03T14:03:49.449Z,6.90
2022-12-03T14:06:17.073Z,6.90
2022-12-03T14:08:45.253Z,7.00
2022-12-03T14:11:32.926Z,7.00
2022-12-03T14:14:01.342Z,6.90
2022-12-03T14:16:29.741Z,6.60
2022-12-03T14:18:57.372Z,6.70
2022-12-03T14:21:25.128Z,6.90
2022-12-03T14:23:53.203Z,7.00
2022-12-03T14:26:20.740Z,7.10
2022-12-03T14:28:51.017Z,7.20
2022-12-03T14:31:18.402Z,7.20
2022-12-03T14:33:46.009Z,7.20
2022-12-03T14:36:13.449Z,7.30
2022-12-03T14:38:41.254Z,7.20
2022-12-03T14:41:33.092Z,7.20
2022-12-03T14:44:00.876Z,7.10
2022-12-03T14:46:28.483Z,6.90
2022-12-03T14:48:56.613Z,6.80
2022-12-03T14:51:24.056Z,6.70
2022-12-03T14:53:52.038Z,6.80
2022-12-03T14:56:19.722Z,7.00
2022-12-03T14:58:47.480Z,6.80
2022-12-03T15:01:15.400Z,6.90
2022-12-03T15:03:43.269Z,6.90
2022-12-03T15:06:10.606Z,6.60
2022-12-03T15:08:38.478Z,5.10
2022-12-03T15:11:06.307Z,3.10
2022-12-03T15:13:34.138Z,2.10
2022-12-03T15:16:03.100Z,1.50
2022-12-03T15:18:31.616Z,1.10
2022-12-03T15:21:00.232Z,0.90
2022-12-03T15:23:28.395Z,0.60
2022-12-03T15:25:55.947Z,0.60
2022-12-03T15:28:23.898Z,0.50
2022-12-03T15:30:51.770Z,0.40
2022-12-03T15:33:19.910Z,0.40
2022-12-03T15:35:47.766Z,0.30
2022-12-03T15:38:15.679Z,0.30
2022-12-03T15:40:43.321Z,0.30
2022-12-03T15:43:11.222Z,0.30
2022-12-03T15:45:38.780Z,0.20
2022-12-03T15:48:06.689Z,0.20
2022-12-03T15:50:39.719Z,0.20
2022-12-03T15:53:08.265Z,0.20
2022-12-03T15:55:35.737Z,0.20
2022-12-03T15:58:03.563Z,0.20
2022-12-03T16:00:31.102Z,0.20
2022-12-03T16:02:59.810Z,0.20
2022-12-03T16:05:28.396Z,0.20
2022-12-03T16:07:56.187Z,0.20
2022-12-03T16:10:23.698Z,0.20
2022-12-03T16:12:51.730Z,0.20
2022-12-03T16:15:25.142Z,0.20
2022-12-03T16:17:54.850Z,0.20
2022-12-03T16:20:22.402Z,0.20
2022-12-03T16:22:50.264Z,0.30
2022-12-03T16:25:17.747Z,0.30
2022-12-03T16:27:45.325Z,0.30
2022-12-03T16:30:13.851Z,0.30
2022-12-03T16:32:41.877Z,0.30
2022-12-03T16:35:09.584Z,0.30
2022-12-03T16:37:37.538Z,0.30
2022-12-03T16:40:06.127Z,0.30
2022-12-03T16:42:33.986Z,0.30
2022-12-03T16:45:04.199Z,0.30
2022-12-03T16:47:34.343Z,0.50
2022-12-03T16:50:12.974Z,1.00
2022-12-03T16:52:46.992Z,1.50
2022-12-03T16:55:14.392Z,2.10
2022-12-03T16:57:42.353Z,2.50
2022-12-03T17:00:10.318Z,3.00
2022-12-03T17:02:38.219Z,3.30
2022-12-03T17:05:06.254Z,3.70
2022-12-03T17:07:34.750Z,4.10
2022-12-03T17:10:02.637Z,4.40
2022-12-03T17:12:54.124Z,4.70
2022-12-03T17:15:18.440Z,5.10
2022-12-03T17:17:48.609Z,5.40
2022-12-03T17:20:17.571Z,5.60
2022-12-03T17:22:46.714Z,5.70
2022-12-03T17:25:14.209Z,6.10
2022-12-03T17:27:45.080Z,6.40
2022-12-03T17:30:13.583Z,6.60
2022-12-03T17:32:42.066Z,6.60
2022-12-03T17:35:11.459Z,6.80
2022-12-03T17:37:40.828Z,6.90
2022-12-03T17:40:12.058Z,6.70
2022-12-03T17:42:40.175Z,6.90
2022-12-03T17:45:08.435Z,7.00
2022-12-03T17:47:36.273Z,7.00
2022-12-03T17:50:04.253Z,6.80
2022-12-03T17:52:32.199Z,6.70
2022-12-03T17:55:11.228Z,6.80
2022-12-03T17:57:41.499Z,7.00
2022-12-03T18:00:10.568Z,7.20
2022-12-03T18:02:43.122Z,7.40
2022-12-03T18:05:11.188Z,7.50
2022-12-03T18:07:39.027Z,7.40
2022-12-03T18:10:07.421Z,7.40
2022-12-03T18:12:36.015Z,7.50
2022-12-03T18:15:04.197Z,7.60
2022-12-03T18:17:32.253Z,7.50
2022-12-03T18:19:59.848Z,7.50
2022-12-03T18:22:28.506Z,7.40
2022-12-03T18:24:56.063Z,7.40
2022-12-03T18:27:24.512Z,7.50
2022-12-03T18:29:54.716Z,7.60
2022-12-03T18:32:30.436Z,7.70
2022-12-03T18:34:58.395Z,7.60
2022-12-03T18:37:28.196Z,7.50
2022-12-03T18:39:56.826Z,7.60
2022-12-03T18:42:25.302Z,7.90
2022-12-03T18:44:55.619Z,8.00
2022-12-03T18:47:26.657Z,7.80
2022-12-03T18:49:55.594Z,7.50
2022-12-03T18:52:25.216Z,7.50
2022-12-03T18:54:54.743Z,7.50
2022-12-03T18:57:22.287Z,7.70
2022-12-03T18:59:49.809Z,7.70
2022-12-03T19:05:09.590Z,7.60
2022-12-03T19:07:51.348Z,7.90
2022-12-03T19:10:20.873Z,8.00
2022-12-03T19:12:48.911Z,8.20
2022-12-03T19:15:16.629Z,8.40
2022-12-03T19:17:49.413Z,8.50
2022-12-03T19:20:17.167Z,8.50
2022-12-03T19:22:45.218Z,8.50
2022-12-03T19:25:16.422Z,8.50
2022-12-03T19:27:45.046Z,8.20
2022-12-03T19:30:13.228Z,4.70
2022-12-03T19:32:41.249Z,3.20
2022-12-03T19:35:11.339Z,2.40
2022-12-03T19:37:39.152Z,1.90
2022-12-03T19:40:07.416Z,1.60
2022-12-03T19:42:35.280Z,1.40
2022-12-03T19:45:02.600Z,1.20
2022-12-03T19:47:32.726Z,1.10
2022-12-03T19:50:00.449Z,1.00
2022-12-03T19:52:28.134Z,1.00
2022-12-03T19:54:55.688Z,0.90
2022-12-03T19:57:23.746Z,0.90
2022-12-03T19:59:51.493Z,0.90
2022-12-03T20:02:19.543Z,0.80
2022-12-03T20:04:47.086Z,0.80
2022-12-03T20:07:15.066Z,0.80
2022-12-03T20:09:42.577Z,0.80
2022-12-03T20:12:10.295Z,1.20
2022-12-03T20:14:38.422Z,1.80
2022-12-03T20:17:06.541Z,2.50
2022-12-03T20:19:33.909Z,3.00
2022-12-03T20:22:02.953Z,3.50
2022-12-03T20:24:31.040Z,4.00
2022-12-03T20:26:59.052Z,4.40
2022-12-03T20:29:27.093Z,4.80
2022-12-03T20:31:55.078Z,5.20
2022-12-03T20:34:22.856Z,5.40
2022-12-03T20:36:50.722Z,5.50
2022-12-03T20:39:18.288Z,5.70
2022-12-03T20:41:46.299Z,5.80
2022-12-03T20:44:14.061Z,6.10
2022-12-03T20:46:42.052Z,6.30
2022-12-03T20:49:10.393Z,6.40
2022-12-03T20:51:38.148Z,6.40
2022-12-03T20:54:05.806Z,6.60
2022-12-03T20:56:36.850Z,6.80
2022-12-03T20:59:06.908Z,7.00
2022-12-03T21:01:36.439Z,6.90
2022-12-03T21:04:05.273Z,7.00
2022-12-03T21:06:35.884Z,7.20
2022-12-03T21:09:06.874Z,7.20
2022-12-03T21:11:40.829Z,7.10
2022-12-03T21:14:10.988Z,7.20
2022-12-03T21:17:07.193Z,7.20
2022-12-03T21:19:33.837Z,7.30
2022-12-03T21:22:01.765Z,7.20
2022-12-03T21:24:31.075Z,6.80
2022-12-03T21:26:58.831Z,6.80
2022-12-03T21:29:26.170Z,6.70
2022-12-03T21:31:53.906Z,6.50
2022-12-03T21:34:21.258Z,6.60
2022-12-03T21:36:48.846Z,6.70
2022-12-03T21:39:16.316Z,6.60
2022-12-03T21:42:33.271Z,6.40
2022-12-03T21:44:32.722Z,6.20
2022-12-03T21:47:09.454Z,6.30
2022-12-03T21:49:40.437Z,6.50
2022-12-03T21:52:08.009Z,6.70
2022-12-03T21:54:35.586Z,6.80
2022-12-03T21:57:04.316Z,6.60
2022-12-03T21:59:32.079Z,6.60
2022-12-03T22:01:59.669Z,6.60
2022-12-03T22:04:27.156Z,6.70
2022-12-03T22:06:55.228Z,6.80
2022-12-03T22:09:26.446Z,6.50
2022-12-03T22:11:57.029Z,6.40
2022-12-03T22:14:24.648Z,6.50
2022-12-03T22:16:52.311Z,6.50
2022-12-03T22:19:23.359Z,6.50
2022-12-03T22:21:50.896Z,6.60
2022-12-03T22:24:19.706Z,6.70
2022-12-03T22:26:47.666Z,6.90
2022-12-03T22:29:15.398Z,7.00
2022-12-03T22:31:43.429Z,7.00
2022-12-03T22:34:10.708Z,7.00
2022-12-03T22:36:38.310Z,7.00
2022-12-03T22:39:05.877Z,7.00
2022-12-03T22:41:34.178Z,7.00
2022-12-03T22:44:01.773Z,6.80
2022-12-03T22:46:30.368Z,6.80
2022-12-03T22:49:01.823Z,6.80
2022-12-03T22:51:33.946Z,6.80
2022-12-03T22:54:02.098Z,6.90
2022-12-03T22:56:30.913Z,6.80
2022-12-03T22:58:59.962Z,6.70
2022-12-03T23:01:30.457Z,6.50
2022-12-03T23:03:58.791Z,6.60
2022-12-03T23:06:27.389Z,6.70
2022-12-03T23:08:55.359Z,6.70
2022-12-03T23:11:23.453Z,6.40
2022-12-03T23:13:50.982Z,6.50
2022-12-03T23:16:26.865Z,6.40
2022-12-03T23:18:55.444Z,6.50
2022-12-03T23:21:29.858Z,6.30
2022-12-03T23:23:59.417Z,6.30
2022-12-03T23:26:28.317Z,6.40
2022-12-03T23:28:56.304Z,6.70
2022-12-03T23:31:27.034Z,6.60
2022-12-03T23:33:55.872Z,6.60
2022-12-03T23:36:27.224Z,6.60
2022-12-03T23:38:54.968Z,6.60
2022-12-03T23:41:24.310Z,6.60
2022-12-03T23:43:52.625Z,6.70
2022-12-03T23:46:23.363Z,6.90
2022-12-03T23:48:52.009Z,7.00
2022-12-03T23:51:23.863Z,7.00
2022-12-03T23:53:53.350Z,6.90
2022-12-03T23:56:26.256Z,6.90
2022-12-03T23:58:53.651Z,6.80
